Main page
METAR-TAF:

METAR-TAF

Airports :

Blackpool Airport

Blackpool, England

latitude: 53-46N, longitude: 003-02W, elevation: 10 m

Current weather observation

The report was made 9 hours and 55 minutes ago, at 18:50 UTC
Wind 9 kt from the South
Temperature 16°C
Humidity 94%
Pressure 1010 hPa
Visibility: 9000 m
Broken clouds at a height of 1800 ft

METAR: EGNH 181850Z 19009KT 9000 BKN018 16/15 Q1010

Time: 05:45 (04:45 UTC)

Forecast

The report was made 11 hours and 42 minutes ago, at 17:03 UTC
Forecast valid from 18 at 18 UTC to 18 at 20 UTC
Wind 8 kt from the South
Visibility: 8000 m
Few clouds at a height of 600 ft
Broken clouds at a height of 3000 ft
Becoming
from 18 at 18 UTC to 18 at 20 UTC
Visibility 10 km or more

TAF: EGNH 181703Z 1818/1820 18008KT 8000 FEW006 BKN030 BECMG 1818/1820 9999

Weather observations and forecasts of more than 4000 airports (METAR and TAF reports).

The available stations are represented by yellow and red dots on the map.

Hover mouse over dot to see the name of the station.

Then click to see weather observations and forecasts.

To change the map : click on the green buttons with a black cross to zoom in, on the green button with a dash to zoom out, or on the green arrows for adjacent maps.


METAR-TAF: